createdAt,value
2019-05-12T00:00:12.662Z,6.34
2019-05-12T00:01:12.612Z,6.36
2019-05-12T00:02:12.636Z,6.33
2019-05-12T00:03:12.594Z,6.31
2019-05-12T00:04:12.652Z,6.31
2019-05-12T00:05:12.614Z,6.30
2019-05-12T00:06:12.562Z,6.28
2019-05-12T00:07:12.552Z,6.28
2019-05-12T00:08:12.544Z,6.28
2019-05-12T00:09:12.541Z,6.25
2019-05-12T00:10:12.541Z,6.22
2019-05-12T00:11:12.511Z,6.21
2019-05-12T00:12:12.501Z,6.18
2019-05-12T00:13:12.490Z,6.15
2019-05-12T00:14:12.473Z,6.15
2019-05-12T00:15:12.482Z,6.12
2019-05-12T00:16:12.502Z,6.09
2019-05-12T00:17:12.472Z,6.08
2019-05-12T00:18:12.462Z,6.04
2019-05-12T00:19:12.551Z,6.03
2019-05-12T00:20:12.411Z,6.04
2019-05-12T00:21:12.432Z,6.03
2019-05-12T00:22:12.423Z,6.03
2019-05-12T00:23:23.895Z,6.01
2019-05-12T00:24:13.370Z,6.00
2019-05-12T00:25:12.382Z,6.00
2019-05-12T00:26:12.372Z,6.00
2019-05-12T00:27:12.342Z,5.99
2019-05-12T00:28:12.353Z,5.97
2019-05-12T00:29:12.334Z,5.96
2019-05-12T00:30:12.435Z,5.97
2019-05-12T00:31:12.321Z,5.96
2019-05-12T00:32:12.329Z,5.96
2019-05-12T00:33:12.308Z,5.94
2019-05-12T00:34:12.298Z,5.96
2019-05-12T00:35:12.371Z,5.96
2019-05-12T00:36:12.354Z,5.96
2019-05-12T00:37:12.231Z,5.94
2019-05-12T00:38:12.241Z,5.96
2019-05-12T00:39:12.230Z,5.93
2019-05-12T00:40:12.243Z,5.93
2019-05-12T00:41:12.211Z,5.91
2019-05-12T00:42:12.183Z,5.91
2019-05-12T00:43:12.171Z,5.91
2019-05-12T00:44:12.151Z,5.90
2019-05-12T00:45:12.190Z,5.90
2019-05-12T00:46:12.141Z,5.86
2019-05-12T00:47:12.211Z,5.89
2019-05-12T00:48:12.140Z,5.86
2019-05-12T00:49:12.131Z,5.86
2019-05-12T00:50:12.090Z,5.83
2019-05-12T00:51:12.100Z,5.82
2019-05-12T00:52:12.184Z,5.81
2019-05-12T00:53:12.074Z,5.79
2019-05-12T00:54:12.051Z,5.79
2019-05-12T00:55:12.069Z,5.81
2019-05-12T00:56:12.071Z,5.79
2019-05-12T00:57:12.021Z,5.78
2019-05-12T00:58:12.011Z,5.78
2019-05-12T00:59:11.999Z,5.75
2019-05-12T01:00:11.998Z,5.75
2019-05-12T01:01:12.000Z,5.76
2019-05-12T01:02:12.050Z,5.75
2019-05-12T01:03:12.039Z,5.74
2019-05-12T01:04:11.967Z,5.72
2019-05-12T01:05:11.960Z,5.71
2019-05-12T01:06:11.918Z,5.71
2019-05-12T01:07:12.010Z,5.71
2019-05-12T01:08:11.933Z,5.71
2019-05-12T01:09:11.880Z,5.68
2019-05-12T01:10:11.870Z,5.71
2019-05-12T01:11:11.891Z,5.68
2019-05-12T01:12:11.963Z,5.71
2019-05-12T01:13:11.848Z,5.71
2019-05-12T01:14:11.859Z,5.68
2019-05-12T01:15:11.850Z,5.68
2019-05-12T01:16:11.809Z,5.71
2019-05-12T01:17:11.920Z,5.68
2019-05-12T01:18:11.820Z,5.72
2019-05-12T01:19:11.790Z,5.71
2019-05-12T01:20:11.761Z,5.68
2019-05-12T01:21:11.794Z,5.68
2019-05-12T01:22:11.770Z,5.68
2019-05-12T01:23:11.854Z,5.71
2019-05-12T01:24:11.730Z,5.72
2019-05-12T01:25:11.753Z,5.72
2019-05-12T01:26:11.700Z,5.72
2019-05-12T01:27:11.719Z,5.72
2019-05-12T01:28:11.788Z,5.72
2019-05-12T01:29:11.689Z,5.72
2019-05-12T01:30:19.387Z,5.71
2019-05-12T01:31:11.680Z,5.72
2019-05-12T01:32:11.667Z,5.75
2019-05-12T01:33:11.720Z,5.78
2019-05-12T01:34:11.640Z,5.79
2019-05-12T01:35:11.650Z,5.83
2019-05-12T01:36:11.589Z,5.86
2019-05-12T01:37:11.609Z,5.90
2019-05-12T01:38:11.710Z,5.94
2019-05-12T01:39:11.602Z,5.97
2019-05-12T01:40:11.553Z,5.99
2019-05-12T01:41:11.568Z,5.99
2019-05-12T01:42:11.569Z,5.99
2019-05-12T01:43:11.553Z,6.00
2019-05-12T01:44:11.629Z,6.00
2019-05-12T01:45:11.551Z,6.01
2019-05-12T01:46:11.490Z,6.03
2019-05-12T01:47:11.500Z,6.04
2019-05-12T01:48:11.509Z,6.04
2019-05-12T01:49:11.539Z,6.06
2019-05-12T01:50:11.450Z,6.08
2019-05-12T01:51:11.438Z,6.11
2019-05-12T01:52:11.419Z,6.12
2019-05-12T01:53:11.542Z,6.14
2019-05-12T01:54:14.874Z,6.15
2019-05-12T01:55:11.419Z,6.15
2019-05-12T01:56:11.387Z,6.19
2019-05-12T01:57:11.399Z,6.19
2019-05-12T01:58:11.379Z,6.21
2019-05-12T01:59:11.438Z,6.21
2019-05-12T02:00:11.339Z,6.21
2019-05-12T02:01:11.366Z,6.19
2019-05-12T02:02:11.347Z,6.21
2019-05-12T02:03:11.312Z,6.22
2019-05-12T02:04:11.310Z,6.19
2019-05-12T02:05:11.299Z,6.21
2019-05-12T02:06:11.280Z,6.21
2019-05-12T02:07:11.280Z,6.21
2019-05-12T02:08:11.299Z,6.21
2019-05-12T02:09:11.349Z,6.21
2019-05-12T02:10:11.228Z,6.19
2019-05-12T02:11:11.251Z,6.19
2019-05-12T02:12:11.209Z,6.18
2019-05-12T02:13:11.200Z,6.18
2019-05-12T02:14:11.199Z,6.15
2019-05-12T02:15:11.298Z,6.14
2019-05-12T02:16:11.172Z,6.12
2019-05-12T02:17:11.192Z,6.11
2019-05-12T02:18:11.168Z,6.09
2019-05-12T02:19:11.158Z,6.08
2019-05-12T02:20:11.151Z,6.04
2019-05-12T02:21:11.122Z,6.03
2019-05-12T02:22:11.208Z,6.01
2019-05-12T02:23:11.092Z,6.00
2019-05-12T02:24:23.258Z,6.00
2019-05-12T02:25:12.068Z,5.99
2019-05-12T02:26:11.181Z,5.99
2019-05-12T02:27:11.078Z,5.97
2019-05-12T02:28:11.067Z,5.96
2019-05-12T02:29:11.038Z,5.94
2019-05-12T02:30:11.032Z,5.94
2019-05-12T02:31:11.038Z,5.96
2019-05-12T02:32:11.120Z,5.94
2019-05-12T02:33:11.008Z,5.94
2019-05-12T02:34:11.004Z,5.94
2019-05-12T02:35:11.090Z,5.94
2019-05-12T02:36:10.960Z,5.91
2019-05-12T02:37:10.998Z,5.91
2019-05-12T02:38:10.962Z,5.90
2019-05-12T02:39:10.950Z,5.89
2019-05-12T02:40:11.030Z,5.89
2019-05-12T02:41:10.929Z,5.86
2019-05-12T02:42:10.981Z,5.82
2019-05-12T02:43:10.898Z,5.82
2019-05-12T02:44:14.637Z,5.82
2019-05-12T02:45:10.862Z,5.79
2019-05-12T02:46:10.849Z,5.76
2019-05-12T02:47:10.844Z,5.76
2019-05-12T02:48:14.004Z,5.74
2019-05-12T02:49:10.837Z,5.74
2019-05-12T02:50:14.362Z,5.72
2019-05-12T02:51:10.831Z,5.71
2019-05-12T02:52:10.798Z,5.71
2019-05-12T02:53:10.768Z,5.71
2019-05-12T02:54:10.813Z,5.71
2019-05-12T02:55:10.779Z,5.68
2019-05-12T02:56:10.743Z,5.67
2019-05-12T02:57:10.759Z,5.65
2019-05-12T02:58:10.752Z,5.65
2019-05-12T02:59:10.712Z,5.63
2019-05-12T03:00:10.707Z,5.64
2019-05-12T03:01:10.717Z,5.64
2019-05-12T03:02:10.667Z,5.63
2019-05-12T03:03:10.678Z,5.63
2019-05-12T03:04:10.659Z,5.61
2019-05-12T03:05:10.647Z,5.61
2019-05-12T03:06:10.661Z,5.60
2019-05-12T03:07:10.639Z,5.60
2019-05-12T03:08:10.623Z,5.58
2019-05-12T03:09:10.597Z,5.58
2019-05-12T03:10:10.601Z,5.57
2019-05-12T03:11:10.678Z,5.57
2019-05-12T03:12:10.587Z,5.57
2019-05-12T03:13:10.557Z,5.58
2019-05-12T03:14:10.574Z,5.58
2019-05-12T03:15:10.562Z,5.57
2019-05-12T03:16:10.534Z,5.58
2019-05-12T03:17:10.640Z,5.57
2019-05-12T03:18:10.527Z,5.58
2019-05-12T03:19:10.594Z,5.56
2019-05-12T03:20:10.475Z,5.56
2019-05-12T03:21:10.488Z,5.54
2019-05-12T03:22:10.554Z,5.53
2019-05-12T03:23:10.478Z,5.49
2019-05-12T03:24:10.438Z,5.46
2019-05-12T03:25:20.478Z,5.45
2019-05-12T03:26:11.528Z,5.43
2019-05-12T03:27:10.398Z,5.42
2019-05-12T03:28:10.420Z,5.40
2019-05-12T03:29:10.421Z,5.39
2019-05-12T03:30:12.543Z,5.38
2019-05-12T03:31:11.379Z,5.38
2019-05-12T03:32:10.397Z,5.36
2019-05-12T03:33:12.139Z,5.36
2019-05-12T03:34:13.552Z,5.38
2019-05-12T03:35:16.861Z,5.38
2019-05-12T03:36:17.184Z,5.38
2019-05-12T03:37:17.178Z,5.38
2019-05-12T03:38:14.500Z,5.38
2019-05-12T03:39:10.318Z,5.38
2019-05-12T03:40:10.377Z,5.36
2019-05-12T03:41:10.279Z,5.38
2019-05-12T03:42:10.267Z,5.36
2019-05-12T03:43:10.261Z,5.36
2019-05-12T03:44:10.324Z,5.38
2019-05-12T03:45:10.328Z,5.39
2019-05-12T03:46:10.217Z,5.39
2019-05-12T03:47:10.217Z,5.39
2019-05-12T03:48:10.220Z,5.40
2019-05-12T03:49:10.268Z,5.39
2019-05-12T03:50:10.157Z,5.38
2019-05-12T03:51:10.267Z,5.38
2019-05-12T03:52:10.158Z,5.33
2019-05-12T03:53:11.215Z,5.33
2019-05-12T03:54:10.118Z,5.35
2019-05-12T03:55:27.285Z,5.36
2019-05-12T03:56:11.116Z,5.36
2019-05-12T03:57:10.077Z,5.38
2019-05-12T03:58:10.077Z,5.39
2019-05-12T03:59:10.086Z,5.36
2019-05-12T04:00:10.051Z,5.39
2019-05-12T04:01:10.036Z,5.39
2019-05-12T04:02:10.066Z,5.40
2019-05-12T04:03:10.046Z,5.40
2019-05-12T04:04:10.016Z,5.39
2019-05-12T04:05:10.297Z,5.40
2019-05-12T04:06:09.994Z,5.40
2019-05-12T04:07:09.976Z,5.40
2019-05-12T04:08:10.055Z,5.40
2019-05-12T04:09:09.993Z,5.42
2019-05-12T04:10:09.948Z,5.43
2019-05-12T04:11:09.946Z,5.43
2019-05-12T04:12:09.951Z,5.45
2019-05-12T04:13:09.919Z,5.46
2019-05-12T04:14:09.926Z,5.46
2019-05-12T04:15:09.887Z,5.46
2019-05-12T04:16:09.877Z,5.45
2019-05-12T04:17:09.902Z,5.43
2019-05-12T04:18:09.987Z,5.42
2019-05-12T04:19:09.848Z,5.39
2019-05-12T04:20:09.847Z,5.38
2019-05-12T04:21:09.923Z,5.36
2019-05-12T04:22:09.929Z,5.36
2019-05-12T04:23:09.806Z,5.35
2019-05-12T04:24:09.800Z,5.31
2019-05-12T04:25:09.775Z,5.30
2019-05-12T04:26:13.272Z,5.28
2019-05-12T04:27:10.876Z,5.27
2019-05-12T04:28:09.747Z,5.24
2019-05-12T04:29:09.755Z,5.21
2019-05-12T04:30:09.720Z,5.18
2019-05-12T04:31:09.746Z,5.17
2019-05-12T04:32:09.705Z,5.12
2019-05-12T04:33:09.792Z,5.09
2019-05-12T04:34:14.250Z,5.07
2019-05-12T04:35:10.696Z,5.04
2019-05-12T04:36:09.656Z,5.03
2019-05-12T04:37:09.656Z,5.00
2019-05-12T04:38:09.656Z,4.97
2019-05-12T04:39:09.734Z,4.94
2019-05-12T04:40:09.635Z,4.89
2019-05-12T04:41:09.636Z,4.88
2019-05-12T04:42:09.618Z,4.85
2019-05-12T04:43:09.718Z,4.84
2019-05-12T04:44:09.579Z,4.82
2019-05-12T04:45:09.586Z,4.80
2019-05-12T04:46:09.556Z,4.77
2019-05-12T04:47:09.570Z,4.73
2019-05-12T04:48:09.556Z,4.73
2019-05-12T04:49:09.616Z,4.72
2019-05-12T04:50:09.515Z,4.72
2019-05-12T04:51:09.494Z,4.70
2019-05-12T04:52:09.516Z,4.72
2019-05-12T04:53:09.477Z,4.72
2019-05-12T04:54:09.555Z,4.73
2019-05-12T04:55:09.487Z,4.77
2019-05-12T04:56:16.780Z,4.77
2019-05-12T04:57:10.458Z,4.78
2019-05-12T04:58:09.445Z,4.80
2019-05-12T04:59:09.547Z,4.80
2019-05-12T05:00:09.435Z,4.82
2019-05-12T05:01:09.394Z,4.82
2019-05-12T05:02:09.404Z,4.84
2019-05-12T05:03:09.396Z,4.84
2019-05-12T05:04:09.356Z,4.85
2019-05-12T05:05:09.406Z,4.88
2019-05-12T05:06:09.354Z,4.89
2019-05-12T05:07:09.346Z,4.92
2019-05-12T05:08:09.315Z,4.94
2019-05-12T05:09:09.327Z,4.96
2019-05-12T05:10:09.364Z,4.97
2019-05-12T05:11:09.321Z,5.00
2019-05-12T05:12:09.307Z,5.03
2019-05-12T05:13:09.255Z,5.06
2019-05-12T05:14:09.344Z,5.09
2019-05-12T05:15:09.374Z,5.12
2019-05-12T05:16:09.237Z,5.13
2019-05-12T05:17:09.262Z,5.20
2019-05-12T05:18:09.214Z,5.27
2019-05-12T05:19:09.193Z,5.35
2019-05-12T05:20:09.224Z,5.42
2019-05-12T05:21:09.273Z,5.54
2019-05-12T05:22:09.192Z,5.67
2019-05-12T05:23:09.153Z,5.82
2019-05-12T05:24:09.153Z,5.99
2019-05-12T05:25:09.263Z,6.18
2019-05-12T05:26:20.920Z,6.41
2019-05-12T05:27:10.135Z,6.66
2019-05-12T05:28:09.123Z,6.97
2019-05-12T05:29:09.093Z,7.39
2019-05-12T05:30:09.073Z,7.93
2019-05-12T05:31:09.103Z,8.48
2019-05-12T05:32:09.096Z,8.99
2019-05-12T05:33:09.044Z,9.50
2019-05-12T05:34:09.033Z,9.84
2019-05-12T05:35:09.023Z,10.05
2019-05-12T05:36:13.995Z,10.29
2019-05-12T05:37:10.046Z,10.41
2019-05-12T05:38:10.872Z,10.47
2019-05-12T05:39:09.983Z,10.30
2019-05-12T05:40:08.986Z,9.96
2019-05-12T05:41:10.593Z,9.50
2019-05-12T05:42:08.973Z,9.08
2019-05-12T05:43:16.482Z,8.80
2019-05-12T05:44:09.966Z,8.59
2019-05-12T05:45:09.794Z,8.61
2019-05-12T05:46:10.006Z,8.50
2019-05-12T05:47:08.932Z,8.40
2019-05-12T05:48:10.186Z,8.36
2019-05-12T05:49:08.881Z,8.36
2019-05-12T05:50:08.893Z,8.38
2019-05-12T05:51:09.244Z,8.83
2019-05-12T05:52:08.963Z,9.36
2019-05-12T05:53:09.368Z,9.97
2019-05-12T05:54:09.855Z,10.41
2019-05-12T05:55:14.479Z,10.88
2019-05-12T05:56:09.822Z,11.33
2019-05-12T05:57:08.877Z,11.69
2019-05-12T05:58:10.626Z,11.85
2019-05-12T05:59:08.918Z,12.01
2019-05-12T06:00:17.241Z,12.27
2019-05-12T06:01:09.756Z,12.42
2019-05-12T06:02:08.754Z,12.50
2019-05-12T06:03:14.851Z,12.52
2019-05-12T06:04:09.847Z,12.52
2019-05-12T06:05:08.715Z,12.57
2019-05-12T06:06:12.364Z,12.65
2019-05-12T06:07:09.673Z,12.83
2019-05-12T06:08:15.172Z,12.87
2019-05-12T06:09:09.683Z,12.85
2019-05-12T06:10:08.773Z,13.00
2019-05-12T06:11:08.826Z,13.20
2019-05-12T06:12:10.107Z,13.28
2019-05-12T06:13:08.613Z,13.33
2019-05-12T06:14:13.141Z,13.55
2019-05-12T06:15:09.594Z,13.45
2019-05-12T06:16:11.720Z,13.41
2019-05-12T06:17:09.834Z,13.14
2019-05-12T06:18:08.585Z,12.68
2019-05-12T06:19:08.654Z,12.27
2019-05-12T06:20:08.563Z,11.86
2019-05-12T06:21:08.555Z,11.65
2019-05-12T06:22:08.907Z,11.43
2019-05-12T06:23:09.513Z,11.19
2019-05-12T06:24:13.527Z,11.37
2019-05-12T06:25:09.626Z,11.61
2019-05-12T06:26:08.495Z,12.01
2019-05-12T06:27:16.202Z,12.17
2019-05-12T06:28:09.495Z,12.16
2019-05-12T06:29:11.277Z,12.38
2019-05-12T06:30:09.534Z,12.68
2019-05-12T06:31:08.444Z,12.68
2019-05-12T06:32:10.766Z,12.64
2019-05-12T06:33:08.404Z,13.00
2019-05-12T06:34:15.197Z,13.41
2019-05-12T06:35:09.414Z,13.75
2019-05-12T06:36:15.022Z,14.06
2019-05-12T06:37:16.779Z,13.92
2019-05-12T06:38:09.383Z,14.04
2019-05-12T06:39:10.328Z,14.04
2019-05-12T06:40:09.447Z,14.06
2019-05-12T06:41:12.759Z,14.25
2019-05-12T06:42:14.264Z,14.52
2019-05-12T06:43:09.286Z,14.58
2019-05-12T06:44:08.708Z,14.69
2019-05-12T06:45:09.265Z,14.73
2019-05-12T06:46:11.849Z,14.78
2019-05-12T06:47:09.246Z,14.89
2019-05-12T06:48:08.265Z,14.89
2019-05-12T06:49:12.833Z,14.96
2019-05-12T06:50:09.205Z,15.27
2019-05-12T06:51:09.083Z,15.67
2019-05-12T06:52:09.216Z,15.74
2019-05-12T06:53:08.226Z,15.68
2019-05-12T06:54:11.961Z,15.54
2019-05-12T06:55:09.186Z,15.38
2019-05-12T06:56:09.404Z,15.53
2019-05-12T06:57:20.812Z,15.64
2019-05-12T06:58:09.168Z,15.57
2019-05-12T06:59:11.710Z,15.60
2019-05-12T07:00:08.106Z,15.74
2019-05-12T07:01:11.073Z,15.76
2019-05-12T07:02:09.077Z,15.78
2019-05-12T07:03:08.099Z,15.76
2019-05-12T07:04:09.980Z,15.84
2019-05-12T07:05:08.059Z,15.78
2019-05-12T07:06:09.160Z,15.80
2019-05-12T07:07:09.027Z,16.15
2019-05-12T07:08:08.030Z,16.49
2019-05-12T07:09:09.910Z,16.86
2019-05-12T07:10:13.016Z,17.08
2019-05-12T07:11:08.999Z,17.00
2019-05-12T07:12:07.968Z,17.00
2019-05-12T07:13:08.030Z,16.83
2019-05-12T07:14:19.072Z,16.78
2019-05-12T07:15:09.008Z,16.49
2019-05-12T07:16:10.188Z,16.08
2019-05-12T07:17:08.917Z,15.76
2019-05-12T07:18:07.908Z,15.72
2019-05-12T07:19:17.422Z,15.69
2019-05-12T07:20:08.889Z,15.67
2019-05-12T07:21:09.391Z,15.71
2019-05-12T07:22:19.980Z,15.78
2019-05-12T07:23:08.859Z,15.93
2019-05-12T07:24:11.029Z,16.04
2019-05-12T07:25:08.415Z,16.00
2019-05-12T07:26:14.080Z,15.60
2019-05-12T07:27:09.455Z,15.02
2019-05-12T07:28:08.343Z,14.69
2019-05-12T07:29:07.849Z,14.80
2019-05-12T07:30:07.782Z,14.89
2019-05-12T07:31:07.772Z,14.89
2019-05-12T07:32:16.579Z,15.09
2019-05-12T07:33:08.763Z,15.19
2019-05-12T07:34:07.991Z,15.53
2019-05-12T07:35:07.730Z,15.71
2019-05-12T07:36:07.754Z,15.82
2019-05-12T07:37:07.713Z,15.71
2019-05-12T07:38:12.140Z,15.59
2019-05-12T07:39:08.705Z,15.36
2019-05-12T07:40:07.683Z,15.34
2019-05-12T07:41:10.657Z,15.31
2019-05-12T07:42:07.752Z,15.36
2019-05-12T07:43:09.975Z,15.44
2019-05-12T07:44:08.640Z,15.43
2019-05-12T07:45:11.475Z,15.57
2019-05-12T07:46:08.643Z,15.59
2019-05-12T07:47:07.623Z,15.53
2019-05-12T07:48:10.263Z,15.46
2019-05-12T07:49:07.602Z,15.49
2019-05-12T07:50:14.903Z,15.39
2019-05-12T07:51:08.692Z,15.25
2019-05-12T07:52:07.543Z,15.14
2019-05-12T07:53:07.599Z,15.20
2019-05-12T07:54:07.549Z,15.34
2019-05-12T07:55:07.565Z,15.11
2019-05-12T07:56:07.563Z,14.91
2019-05-12T07:57:11.792Z,14.58
2019-05-12T07:58:13.897Z,14.39
2019-05-12T07:59:08.486Z,13.91
2019-05-12T08:00:11.486Z,13.59
2019-05-12T08:01:08.567Z,13.70
2019-05-12T08:02:07.438Z,13.79
2019-05-12T08:03:16.329Z,13.64
2019-05-12T08:04:08.536Z,13.45
2019-05-12T08:05:10.932Z,13.22
2019-05-12T08:06:08.404Z,12.97
2019-05-12T08:07:07.389Z,12.75
2019-05-12T08:08:10.947Z,12.49
2019-05-12T08:09:07.476Z,12.27
2019-05-12T08:10:17.739Z,12.41
2019-05-12T08:11:08.427Z,12.67
2019-05-12T08:12:09.588Z,13.01
2019-05-12T08:13:08.327Z,13.05
2019-05-12T08:14:07.298Z,13.04
2019-05-12T08:15:09.624Z,13.15
2019-05-12T08:16:07.277Z,13.28
2019-05-12T08:17:10.943Z,13.19
2019-05-12T08:18:08.295Z,13.17
2019-05-12T08:19:08.519Z,13.15
2019-05-12T08:20:07.238Z,13.30
2019-05-12T08:21:07.242Z,13.64
2019-05-12T08:22:07.247Z,13.67
2019-05-12T08:23:10.424Z,13.67
2019-05-12T08:24:07.197Z,13.44
2019-05-12T08:25:07.189Z,13.41
2019-05-12T08:26:12.418Z,13.54
2019-05-12T08:27:08.256Z,13.75
2019-05-12T08:28:18.837Z,14.07
2019-05-12T08:29:10.523Z,14.45
2019-05-12T08:30:08.132Z,14.72
2019-05-12T08:31:07.120Z,15.03
2019-05-12T08:32:10.087Z,15.09
2019-05-12T08:33:09.954Z,15.03
2019-05-12T08:34:07.110Z,15.06
2019-05-12T08:35:07.089Z,15.02
2019-05-12T08:36:11.384Z,14.94
2019-05-12T08:37:08.070Z,14.75
2019-05-12T08:38:07.032Z,14.52
2019-05-12T08:39:11.922Z,14.28
2019-05-12T08:40:08.035Z,14.35
2019-05-12T08:41:07.002Z,14.52
2019-05-12T08:42:07.012Z,14.69
2019-05-12T08:43:10.317Z,14.55
2019-05-12T08:44:06.973Z,14.33
2019-05-12T08:45:08.215Z,14.10
2019-05-12T08:46:11.943Z,13.75
2019-05-12T08:47:07.946Z,13.46
2019-05-12T08:48:10.399Z,13.29
2019-05-12T08:49:07.917Z,13.39
2019-05-12T08:50:06.908Z,13.41
2019-05-12T08:51:14.200Z,13.38
2019-05-12T08:52:07.898Z,13.52
2019-05-12T08:53:12.253Z,13.77
2019-05-12T08:54:08.458Z,14.03
2019-05-12T08:55:06.886Z,14.22
2019-05-12T08:56:13.238Z,14.50
2019-05-12T08:57:07.864Z,14.77
2019-05-12T08:58:06.844Z,14.98
2019-05-12T08:59:09.478Z,15.13
2019-05-12T09:00:08.697Z,15.29
2019-05-12T09:01:06.796Z,15.39
2019-05-12T09:02:10.576Z,15.51
2019-05-12T09:03:06.790Z,15.75
2019-05-12T09:04:13.118Z,15.97
2019-05-12T09:05:07.838Z,16.04
2019-05-12T09:06:09.238Z,16.02
2019-05-12T09:07:07.762Z,15.92
2019-05-12T09:08:06.732Z,15.72
2019-05-12T09:09:06.806Z,15.36
2019-05-12T09:10:06.808Z,15.06
2019-05-12T09:11:06.692Z,14.72
2019-05-12T09:12:06.699Z,14.68
2019-05-12T09:13:06.701Z,14.86
2019-05-12T09:14:06.660Z,14.91
2019-05-12T09:15:08.384Z,15.14
2019-05-12T09:16:09.628Z,15.43
2019-05-12T09:17:07.389Z,15.46
2019-05-12T09:18:06.644Z,15.50
2019-05-12T09:19:10.209Z,15.53
2019-05-12T09:20:08.605Z,15.60
2019-05-12T09:21:06.682Z,15.53
2019-05-12T09:22:16.504Z,15.44
2019-05-12T09:23:07.562Z,15.27
2019-05-12T09:24:06.577Z,15.02
2019-05-12T09:25:08.389Z,14.95
2019-05-12T09:26:06.534Z,15.02
2019-05-12T09:27:08.922Z,15.21
2019-05-12T09:28:06.496Z,15.46
2019-05-12T09:29:07.533Z,15.78
2019-05-12T09:30:09.692Z,16.00
2019-05-12T09:31:06.487Z,16.14
2019-05-12T09:32:09.419Z,16.27
2019-05-12T09:33:06.477Z,16.35
2019-05-12T09:34:11.787Z,16.41
2019-05-12T09:35:07.432Z,16.56
2019-05-12T09:36:06.416Z,16.60
2019-05-12T09:37:06.501Z,16.68
2019-05-12T09:38:11.040Z,16.73
2019-05-12T09:39:07.414Z,16.83
2019-05-12T09:40:06.445Z,17.03
2019-05-12T09:41:06.388Z,17.23
2019-05-12T09:42:06.358Z,17.43
2019-05-12T09:43:10.447Z,17.36
2019-05-12T09:44:06.438Z,17.33
2019-05-12T09:45:10.379Z,17.25
2019-05-12T09:46:06.330Z,17.06
2019-05-12T09:47:12.908Z,17.07
2019-05-12T09:48:09.412Z,17.00
2019-05-12T09:49:06.399Z,16.94
2019-05-12T09:50:09.676Z,16.96
2019-05-12T09:51:08.012Z,17.12
2019-05-12T09:52:06.245Z,17.37
2019-05-12T09:53:10.167Z,17.52
2019-05-12T09:54:07.221Z,17.52
2019-05-12T09:55:06.241Z,17.55
2019-05-12T09:56:06.261Z,17.37
2019-05-12T09:57:06.313Z,17.38
2019-05-12T09:58:06.216Z,17.33
2019-05-12T09:59:17.205Z,17.46
2019-05-12T10:00:07.163Z,17.49
2019-05-12T10:01:06.173Z,17.25
2019-05-12T10:02:10.600Z,17.04
2019-05-12T10:03:08.675Z,16.91
2019-05-12T10:04:10.353Z,16.81
2019-05-12T10:05:07.146Z,16.68
2019-05-12T10:06:06.095Z,16.61
2019-05-12T10:07:06.185Z,16.61
2019-05-12T10:08:06.196Z,16.66
2019-05-12T10:09:08.802Z,16.73
2019-05-12T10:10:07.066Z,16.78
2019-05-12T10:11:10.408Z,16.82
2019-05-12T10:12:07.055Z,16.89
2019-05-12T10:13:06.063Z,16.94
2019-05-12T10:14:10.606Z,16.94
2019-05-12T10:15:07.008Z,16.96
2019-05-12T10:16:08.826Z,17.08
2019-05-12T10:17:05.998Z,17.25
2019-05-12T10:18:10.844Z,17.36
2019-05-12T10:19:07.062Z,17.44
2019-05-12T10:20:05.949Z,17.43
2019-05-12T10:21:10.143Z,17.58
2019-05-12T10:22:06.949Z,17.81
2019-05-12T10:23:10.275Z,18.08
2019-05-12T10:24:06.940Z,18.33
2019-05-12T10:25:05.903Z,18.33
2019-05-12T10:26:09.923Z,18.27
2019-05-12T10:27:05.872Z,18.14
2019-05-12T10:28:11.447Z,18.14
2019-05-12T10:29:16.505Z,18.12
2019-05-12T10:30:12.274Z,17.87
2019-05-12T10:31:06.873Z,17.52
2019-05-12T10:32:05.866Z,17.49
2019-05-12T10:33:05.813Z,17.44
2019-05-12T10:34:05.816Z,17.34
2019-05-12T10:35:05.793Z,17.21
2019-05-12T10:36:08.578Z,17.06
2019-05-12T10:37:05.794Z,16.85
2019-05-12T10:38:10.501Z,16.56
2019-05-12T10:39:06.755Z,16.31
2019-05-12T10:40:05.735Z,16.12
2019-05-12T10:41:05.735Z,16.05
2019-05-12T10:42:05.736Z,16.05
2019-05-12T10:43:05.727Z,16.15
2019-05-12T10:44:05.697Z,16.39
2019-05-12T10:45:05.774Z,16.57
2019-05-12T10:46:05.726Z,16.63
2019-05-12T10:47:05.681Z,16.75
2019-05-12T10:48:05.677Z,16.82
2019-05-12T10:49:05.667Z,16.88
2019-05-12T10:50:05.649Z,16.97
2019-05-12T10:51:05.661Z,17.12
2019-05-12T10:52:05.738Z,17.16
2019-05-12T10:53:10.023Z,17.15
2019-05-12T10:54:12.571Z,17.31
2019-05-12T10:55:06.595Z,17.44
2019-05-12T10:56:05.580Z,17.40
2019-05-12T10:57:05.550Z,17.38
2019-05-12T10:58:07.129Z,17.38
2019-05-12T10:59:05.560Z,17.31
2019-05-12T11:00:05.520Z,17.11
2019-05-12T11:01:08.534Z,17.03
2019-05-12T11:02:05.511Z,16.88
2019-05-12T11:03:10.507Z,16.71
2019-05-12T11:04:06.481Z,16.50
2019-05-12T11:05:05.492Z,16.50
2019-05-12T11:06:07.791Z,16.53
2019-05-12T11:07:05.474Z,16.71
2019-05-12T11:08:09.250Z,16.83
2019-05-12T11:09:06.451Z,17.01
2019-05-12T11:10:16.387Z,17.21
2019-05-12T11:11:06.433Z,17.46
2019-05-12T11:12:05.480Z,17.70
2019-05-12T11:13:08.315Z,17.90
2019-05-12T11:14:14.266Z,18.11
2019-05-12T11:15:06.813Z,18.33
2019-05-12T11:16:05.389Z,18.47
2019-05-12T11:17:07.645Z,18.60
2019-05-12T11:18:05.368Z,18.67
2019-05-12T11:19:10.227Z,18.67
2019-05-12T11:20:06.352Z,18.65
2019-05-12T11:21:05.337Z,18.57
2019-05-12T11:22:05.318Z,18.35
2019-05-12T11:23:05.289Z,18.10
2019-05-12T11:24:05.280Z,17.87
2019-05-12T11:25:05.302Z,17.75
2019-05-12T11:26:05.284Z,17.59
2019-05-12T11:27:05.260Z,17.44
2019-05-12T11:28:05.259Z,17.41
2019-05-12T11:29:05.251Z,17.51
2019-05-12T11:30:05.231Z,17.52
2019-05-12T11:31:05.345Z,17.54
2019-05-12T11:32:05.229Z,17.55
2019-05-12T11:33:05.183Z,17.49
2019-05-12T11:34:05.313Z,17.48
2019-05-12T11:35:05.161Z,17.55
2019-05-12T11:36:05.256Z,17.74
2019-05-12T11:37:05.141Z,17.87
2019-05-12T11:38:05.153Z,17.97
2019-05-12T11:39:05.144Z,17.99
2019-05-12T11:40:05.123Z,17.79
2019-05-12T11:41:09.972Z,17.58
2019-05-12T11:42:06.175Z,17.64
2019-05-12T11:43:05.096Z,17.74
2019-05-12T11:44:05.088Z,17.81
2019-05-12T11:45:05.088Z,17.70
2019-05-12T11:46:05.065Z,17.70
2019-05-12T11:47:05.141Z,17.64
2019-05-12T11:48:09.703Z,17.63
2019-05-12T11:49:06.037Z,17.72
2019-05-12T11:50:09.522Z,17.89
2019-05-12T11:51:06.162Z,18.02
2019-05-12T11:52:07.375Z,18.20
2019-05-12T11:53:05.998Z,18.29
2019-05-12T11:54:08.847Z,18.32
2019-05-12T11:55:05.978Z,18.27
2019-05-12T11:56:07.688Z,18.12
2019-05-12T11:57:04.949Z,18.00
2019-05-12T11:58:11.289Z,17.90
2019-05-12T11:59:06.110Z,17.82
2019-05-12T12:00:05.405Z,17.77
2019-05-12T12:01:08.298Z,17.62
2019-05-12T12:02:04.883Z,17.46
2019-05-12T12:03:12.863Z,17.36
2019-05-12T12:04:05.888Z,17.34
2019-05-12T12:05:04.862Z,17.43
2019-05-12T12:06:04.862Z,17.58
2019-05-12T12:07:04.937Z,17.77
2019-05-12T12:08:04.861Z,17.86
2019-05-12T12:09:09.063Z,17.93
2019-05-12T12:10:05.823Z,17.93
2019-05-12T12:11:04.813Z,17.90
2019-05-12T12:12:07.243Z,17.74
2019-05-12T12:13:04.799Z,17.56
2019-05-12T12:14:08.430Z,17.34
2019-05-12T12:15:05.767Z,17.15
2019-05-12T12:16:06.962Z,16.88
2019-05-12T12:17:05.818Z,16.68
2019-05-12T12:18:12.943Z,16.49
2019-05-12T12:19:06.038Z,16.34
2019-05-12T12:20:04.687Z,16.24
2019-05-12T12:21:07.588Z,16.04
2019-05-12T12:22:04.687Z,15.87
2019-05-12T12:23:10.564Z,15.76
2019-05-12T12:24:05.670Z,15.62
2019-05-12T12:25:10.672Z,15.43
2019-05-12T12:26:05.654Z,15.32
2019-05-12T12:27:04.621Z,15.17
2019-05-12T12:28:04.758Z,15.19
2019-05-12T12:29:04.689Z,15.16
2019-05-12T12:30:16.124Z,15.14
2019-05-12T12:31:08.575Z,15.13
2019-05-12T12:32:04.559Z,15.03
2019-05-12T12:33:04.580Z,15.07
2019-05-12T12:34:04.667Z,15.09
2019-05-12T12:35:08.991Z,15.13
2019-05-12T12:36:05.539Z,15.17
2019-05-12T12:37:04.520Z,15.21
2019-05-12T12:38:04.523Z,15.28
2019-05-12T12:39:04.500Z,15.35
2019-05-12T12:40:04.630Z,15.53
2019-05-12T12:41:04.595Z,15.74
2019-05-12T12:42:04.534Z,15.97
2019-05-12T12:43:04.472Z,16.14
2019-05-12T12:44:04.649Z,16.33
2019-05-12T12:45:04.453Z,16.50
2019-05-12T12:46:04.491Z,16.71
2019-05-12T12:47:04.404Z,16.89
2019-05-12T12:48:04.414Z,16.96
2019-05-12T12:49:06.439Z,16.96
2019-05-12T12:50:05.381Z,17.01
2019-05-12T12:51:05.885Z,17.06
2019-05-12T12:52:04.364Z,17.11
2019-05-12T12:53:04.353Z,17.21
2019-05-12T12:54:04.323Z,17.26
2019-05-12T12:55:08.293Z,17.38
2019-05-12T12:56:04.535Z,17.49
2019-05-12T12:57:06.597Z,17.54
2019-05-12T12:58:05.304Z,17.51
2019-05-12T12:59:10.433Z,17.59
2019-05-12T13:00:05.374Z,17.71
2019-05-12T13:01:04.277Z,17.89
2019-05-12T13:02:07.625Z,18.08
2019-05-12T13:03:04.250Z,18.25